createdAt,value
2018-11-29T00:02:11.470Z,2.00
2018-11-29T00:04:39.000Z,3.30
2018-11-29T00:07:06.433Z,2.80
2018-11-29T00:09:38.990Z,2.23
2018-11-29T00:12:06.763Z,3.20
2018-11-29T00:14:34.517Z,2.13
2018-11-29T00:17:01.930Z,3.33
2018-11-29T00:19:29.413Z,3.33
2018-11-29T00:21:56.931Z,3.33
2018-11-29T00:24:24.355Z,3.17
2018-11-29T00:26:51.805Z,3.70
2018-11-29T00:29:19.215Z,2.30
2018-11-29T00:31:46.614Z,3.03
2018-11-29T00:34:14.053Z,3.10
2018-11-29T00:36:41.735Z,3.17
2018-11-29T00:39:09.189Z,2.90
2018-11-29T00:41:36.602Z,2.87
2018-11-29T00:44:04.034Z,2.77
2018-11-29T00:46:31.451Z,3.13
2018-11-29T00:48:58.854Z,3.27
2018-11-29T00:51:26.293Z,2.30
2018-11-29T00:53:53.755Z,2.10
2018-11-29T00:56:21.181Z,2.53
2018-11-29T00:58:48.632Z,3.20
2018-11-29T01:01:16.350Z,3.17
2018-11-29T01:03:43.783Z,3.53
2018-11-29T01:06:11.187Z,3.20
2018-11-29T01:08:38.634Z,3.53
2018-11-29T01:11:06.061Z,3.07
2018-11-29T01:13:33.466Z,3.10
2018-11-29T01:16:00.909Z,3.23
2018-11-29T01:18:28.480Z,3.90
2018-11-29T01:20:55.901Z,3.00
2018-11-29T01:23:23.294Z,3.57
2018-11-29T01:25:50.889Z,3.57
2018-11-29T01:28:18.295Z,2.50
2018-11-29T01:30:45.738Z,2.60
2018-11-29T01:33:13.152Z,3.37
2018-11-29T01:35:40.570Z,3.17
2018-11-29T01:38:08.014Z,2.73
2018-11-29T01:40:35.441Z,3.10
2018-11-29T01:43:02.903Z,3.20
2018-11-29T01:45:30.318Z,3.10
2018-11-29T01:47:57.773Z,3.27
2018-11-29T01:50:25.444Z,2.60
2018-11-29T01:52:52.955Z,3.60
2018-11-29T01:55:20.409Z,4.07
2018-11-29T01:57:47.844Z,2.63
2018-11-29T02:00:15.663Z,3.10
2018-11-29T02:02:43.753Z,2.87
2018-11-29T02:05:11.269Z,4.00
2018-11-29T02:07:38.704Z,3.13
2018-11-29T02:10:12.718Z,2.83
2018-11-29T02:12:40.139Z,3.10
2018-11-29T02:15:07.712Z,2.73
2018-11-29T02:17:35.226Z,4.23
2018-11-29T02:20:02.963Z,3.03
2018-11-29T02:22:30.417Z,3.10
2018-11-29T02:24:57.852Z,3.10
2018-11-29T02:27:25.287Z,1.73
2018-11-29T02:29:52.690Z,2.83
2018-11-29T02:32:20.117Z,3.37
2018-11-29T02:34:47.547Z,2.20
2018-11-29T02:37:14.976Z,2.00
2018-11-29T02:39:42.384Z,3.77
2018-11-29T02:42:09.947Z,2.43
2018-11-29T02:44:37.370Z,2.43
2018-11-29T02:47:04.811Z,1.90
2018-11-29T02:49:32.246Z,2.47
2018-11-29T02:51:59.672Z,2.50
2018-11-29T02:54:27.225Z,2.47
2018-11-29T02:56:54.639Z,2.30
2018-11-29T02:59:22.176Z,1.83
2018-11-29T03:01:49.630Z,1.90
2018-11-29T03:04:17.056Z,2.20
2018-11-29T03:06:45.326Z,2.33
2018-11-29T03:09:12.802Z,1.43
2018-11-29T03:11:40.260Z,2.13
2018-11-29T03:14:07.686Z,2.40
2018-11-29T03:16:35.111Z,1.60
2018-11-29T03:19:02.533Z,2.10
2018-11-29T03:21:29.951Z,1.83
2018-11-29T03:23:57.384Z,2.10
2018-11-29T03:26:24.829Z,2.10
2018-11-29T03:28:52.273Z,1.73
2018-11-29T03:31:19.702Z,2.00
2018-11-29T03:33:47.141Z,1.83
2018-11-29T03:36:14.557Z,2.00
2018-11-29T03:38:41.986Z,1.50
2018-11-29T03:41:09.464Z,2.10
2018-11-29T03:43:36.891Z,1.87
2018-11-29T03:46:04.392Z,1.80
2018-11-29T03:48:31.797Z,1.00
2018-11-29T03:50:59.241Z,1.90
2018-11-29T03:53:26.642Z,1.60
2018-11-29T03:55:54.051Z,1.33
2018-11-29T03:58:21.476Z,2.10
2018-11-29T04:00:48.894Z,1.70
2018-11-29T04:03:16.310Z,1.10
2018-11-29T04:05:43.739Z,1.70
2018-11-29T04:08:11.132Z,1.73
2018-11-29T04:10:38.552Z,1.60
2018-11-29T04:13:05.965Z,1.37
2018-11-29T04:15:33.407Z,1.70
2018-11-29T04:18:00.856Z,1.40
2018-11-29T04:20:28.603Z,1.60
2018-11-29T04:22:56.011Z,1.23
2018-11-29T04:25:23.425Z,1.00
2018-11-29T04:27:50.880Z,1.40
2018-11-29T04:30:18.344Z,1.20
2018-11-29T04:32:45.763Z,1.30
2018-11-29T04:35:13.284Z,1.00
2018-11-29T04:37:40.730Z,1.27
2018-11-29T04:40:12.657Z,1.63
2018-11-29T04:42:40.112Z,1.27
2018-11-29T04:45:09.068Z,1.20
2018-11-29T04:47:36.497Z,1.40
2018-11-29T04:50:03.957Z,1.43
2018-11-29T04:52:31.400Z,1.50
2018-11-29T04:54:58.794Z,1.47
2018-11-29T04:57:26.224Z,1.47
2018-11-29T04:59:53.723Z,1.40
2018-11-29T05:02:21.144Z,1.60
2018-11-29T05:04:48.611Z,1.30
2018-11-29T05:07:16.114Z,1.20
2018-11-29T05:09:43.538Z,1.60
2018-11-29T05:12:10.953Z,1.10
2018-11-29T05:14:38.391Z,1.93
2018-11-29T05:17:05.842Z,1.53
2018-11-29T05:19:33.234Z,1.57
2018-11-29T05:22:00.692Z,1.30
2018-11-29T05:24:28.248Z,1.57
2018-11-29T05:26:55.693Z,1.10
2018-11-29T05:29:23.101Z,1.47
2018-11-29T05:31:50.500Z,1.67
2018-11-29T05:34:17.928Z,1.70
2018-11-29T05:36:45.352Z,1.40
2018-11-29T05:39:12.803Z,1.60
2018-11-29T05:41:40.215Z,1.50
2018-11-29T05:44:07.627Z,1.80
2018-11-29T05:46:36.051Z,1.63
2018-11-29T05:49:03.503Z,1.67
2018-11-29T05:51:30.968Z,1.63
2018-11-29T05:53:58.403Z,2.27
2018-11-29T05:56:25.816Z,1.90
2018-11-29T05:58:53.260Z,1.73
2018-11-29T06:01:27.801Z,2.10
2018-11-29T06:03:55.222Z,1.87
2018-11-29T06:06:22.647Z,1.70
2018-11-29T06:08:50.132Z,2.00
2018-11-29T06:11:17.547Z,1.63
2018-11-29T06:13:44.978Z,2.70
2018-11-29T06:16:12.388Z,2.17
2018-11-29T06:18:39.853Z,1.70
2018-11-29T06:21:07.328Z,1.70
2018-11-29T06:23:34.747Z,1.90
2018-11-29T06:26:02.202Z,2.20
2018-11-29T06:28:29.615Z,2.33
2018-11-29T06:30:57.049Z,1.90
2018-11-29T06:33:24.492Z,2.20
2018-11-29T06:35:51.951Z,1.90
2018-11-29T06:38:19.354Z,1.57
2018-11-29T06:40:46.929Z,1.90
2018-11-29T06:43:14.348Z,1.80
2018-11-29T06:45:41.801Z,1.70
2018-11-29T06:48:09.272Z,1.67
2018-11-29T06:50:36.703Z,1.87
2018-11-29T06:53:08.998Z,2.03
2018-11-29T06:55:36.447Z,2.00
2018-11-29T06:58:04.307Z,1.40
2018-11-29T07:00:31.891Z,1.80
2018-11-29T07:02:59.346Z,1.70
2018-11-29T07:05:26.805Z,1.90
2018-11-29T07:07:54.256Z,2.10
2018-11-29T07:10:27.411Z,1.70
2018-11-29T07:12:54.903Z,2.10
2018-11-29T07:15:22.354Z,2.17
2018-11-29T07:17:50.095Z,1.90
2018-11-29T07:20:17.515Z,2.10
2018-11-29T07:22:45.203Z,1.50
2018-11-29T07:25:12.698Z,2.10
2018-11-29T07:27:40.324Z,2.03
2018-11-29T07:30:09.619Z,2.00
2018-11-29T07:32:37.054Z,2.50
2018-11-29T07:35:04.986Z,1.60
2018-11-29T07:37:32.436Z,2.40
2018-11-29T07:39:59.861Z,2.73
2018-11-29T07:42:27.445Z,1.33
2018-11-29T07:44:54.907Z,2.37
2018-11-29T07:47:22.309Z,2.53
2018-11-29T07:49:49.750Z,2.30
2018-11-29T07:52:17.197Z,2.40
2018-11-29T07:54:44.623Z,1.93
2018-11-29T07:57:12.059Z,2.33
2018-11-29T07:59:39.493Z,1.70
2018-11-29T08:02:06.922Z,1.63
2018-11-29T08:04:34.380Z,1.67
2018-11-29T08:07:01.822Z,2.00
2018-11-29T08:09:29.307Z,2.23
2018-11-29T08:11:56.754Z,2.13
2018-11-29T08:14:24.189Z,2.37
2018-11-29T08:16:51.620Z,2.43
2018-11-29T08:19:19.313Z,2.03
2018-11-29T08:21:46.741Z,2.50
2018-11-29T08:24:14.178Z,2.70
2018-11-29T08:26:41.594Z,2.63
2018-11-29T08:29:09.083Z,2.10
2018-11-29T08:31:36.515Z,2.67
2018-11-29T08:34:03.934Z,2.57
2018-11-29T08:36:31.397Z,2.50
2018-11-29T08:38:58.796Z,2.07
2018-11-29T08:41:26.245Z,2.33
2018-11-29T08:43:53.685Z,1.53
2018-11-29T08:46:21.120Z,2.20
2018-11-29T08:48:48.540Z,2.63
2018-11-29T08:51:16.029Z,2.70
2018-11-29T08:53:43.663Z,3.10
2018-11-29T08:56:11.105Z,2.30
2018-11-29T08:58:38.519Z,3.37
2018-11-29T09:01:05.989Z,2.63
2018-11-29T09:03:33.457Z,3.10
2018-11-29T09:06:01.118Z,2.20
2018-11-29T09:08:28.711Z,2.50
2018-11-29T09:10:56.151Z,2.80
2018-11-29T09:13:23.612Z,2.73
2018-11-29T09:15:51.046Z,2.43
2018-11-29T09:18:18.468Z,2.80
2018-11-29T09:20:45.924Z,2.90
2018-11-29T09:23:13.447Z,3.00
2018-11-29T09:25:40.932Z,2.67
2018-11-29T09:28:08.331Z,3.10
2018-11-29T09:30:35.987Z,3.53
2018-11-29T09:33:03.446Z,2.57
2018-11-29T09:35:30.914Z,1.90
2018-11-29T09:37:58.378Z,2.40
2018-11-29T09:40:25.824Z,2.97
2018-11-29T09:42:53.306Z,2.80
2018-11-29T09:45:21.195Z,2.30
2018-11-29T09:47:50.048Z,3.17
2018-11-29T09:50:17.536Z,2.63
2018-11-29T09:52:45.020Z,2.60
2018-11-29T09:55:12.924Z,1.73
2018-11-29T09:57:40.569Z,2.07
2018-11-29T10:00:09.550Z,2.10
2018-11-29T10:02:36.984Z,2.00
2018-11-29T10:05:04.542Z,2.30
2018-11-29T10:07:32.222Z,1.97
2018-11-29T10:09:59.663Z,2.50
2018-11-29T10:12:27.119Z,2.07
2018-11-29T10:14:54.574Z,1.93
2018-11-29T10:17:21.989Z,2.50
2018-11-29T10:19:49.448Z,2.20
2018-11-29T10:22:16.914Z,1.73
2018-11-29T10:24:44.367Z,2.13
2018-11-29T10:27:11.818Z,1.57
2018-11-29T10:29:39.305Z,2.10
2018-11-29T10:32:06.753Z,1.67
2018-11-29T10:34:34.183Z,2.27
2018-11-29T10:37:01.627Z,1.70
2018-11-29T10:39:29.174Z,2.20
2018-11-29T10:41:56.624Z,2.03
2018-11-29T10:44:24.465Z,2.03
2018-11-29T10:46:51.889Z,1.70
2018-11-29T10:49:19.314Z,2.20
2018-11-29T10:51:46.763Z,1.80
2018-11-29T10:54:16.823Z,1.27
2018-11-29T10:56:41.666Z,2.00
2018-11-29T10:59:09.119Z,2.00
2018-11-29T11:01:42.227Z,1.33
2018-11-29T11:04:09.673Z,1.67
2018-11-29T11:06:37.115Z,2.10
2018-11-29T11:09:06.112Z,1.70
2018-11-29T11:11:33.570Z,1.90
2018-11-29T11:14:01.019Z,1.90
2018-11-29T11:16:28.573Z,1.47
2018-11-29T11:18:56.008Z,1.50
2018-11-29T11:21:23.430Z,1.57
2018-11-29T11:23:50.846Z,2.00
2018-11-29T11:26:18.315Z,1.47
2018-11-29T11:28:45.750Z,1.73
2018-11-29T11:31:13.192Z,1.80
2018-11-29T11:33:40.667Z,1.47
2018-11-29T11:36:08.110Z,1.70
2018-11-29T11:38:36.593Z,2.10
2018-11-29T11:41:04.041Z,1.60
2018-11-29T11:43:31.532Z,1.73
2018-11-29T11:45:58.966Z,1.30
2018-11-29T11:48:26.391Z,1.50
2018-11-29T11:50:53.846Z,1.40
2018-11-29T11:53:21.333Z,0.97
2018-11-29T11:55:53.580Z,1.57
2018-11-29T11:58:16.245Z,1.90
2018-11-29T12:00:43.680Z,1.90
2018-11-29T12:03:11.674Z,1.57
2018-11-29T12:05:39.243Z,1.53
2018-11-29T12:08:06.808Z,1.77
2018-11-29T12:10:34.324Z,1.90
2018-11-29T12:13:01.793Z,1.60
2018-11-29T12:15:29.353Z,1.60
2018-11-29T12:17:56.790Z,1.50
2018-11-29T12:20:24.236Z,1.70
2018-11-29T12:22:51.680Z,1.20
2018-11-29T12:25:20.368Z,1.80
2018-11-29T12:27:47.861Z,1.60
2018-11-29T12:30:16.691Z,1.83
2018-11-29T12:32:44.164Z,1.37
2018-11-29T12:35:11.701Z,1.53
2018-11-29T12:37:39.137Z,1.53
2018-11-29T12:40:08.343Z,0.93
2018-11-29T12:42:35.763Z,1.53
2018-11-29T12:45:03.446Z,1.77
2018-11-29T12:47:30.856Z,1.60
2018-11-29T12:49:58.329Z,1.30
2018-11-29T12:52:25.779Z,1.37
2018-11-29T12:54:53.321Z,1.00
2018-11-29T12:57:20.830Z,1.50
2018-11-29T12:59:48.299Z,1.17
2018-11-29T13:02:15.716Z,1.23
2018-11-29T13:04:43.151Z,2.10
2018-11-29T13:07:10.582Z,0.60
2018-11-29T13:09:38.007Z,2.10
2018-11-29T13:12:05.422Z,1.20
2018-11-29T13:14:32.862Z,1.33
2018-11-29T13:17:00.279Z,1.70
2018-11-29T13:19:27.732Z,1.60
2018-11-29T13:21:55.215Z,1.70
2018-11-29T13:24:22.672Z,1.67
2018-11-29T13:26:50.150Z,1.13
2018-11-29T13:29:17.615Z,1.40
2018-11-29T13:31:45.038Z,1.57
2018-11-29T13:34:12.480Z,1.50
2018-11-29T13:36:39.900Z,1.00
2018-11-29T13:39:09.387Z,1.67
2018-11-29T13:41:36.005Z,1.87
2018-11-29T13:44:03.315Z,1.20
2018-11-29T13:46:30.755Z,1.63
2018-11-29T13:48:58.204Z,1.57
2018-11-29T13:51:25.647Z,1.80
2018-11-29T13:53:53.128Z,1.80
2018-11-29T13:56:20.581Z,1.40
2018-11-29T13:58:48.054Z,1.80
2018-11-29T14:01:15.500Z,1.30
2018-11-29T14:03:42.962Z,1.40
2018-11-29T14:06:10.497Z,1.27
2018-11-29T14:08:37.920Z,1.80
2018-11-29T14:11:05.396Z,1.57
2018-11-29T14:13:32.891Z,1.87
2018-11-29T14:16:00.330Z,1.73
2018-11-29T14:18:27.778Z,2.10
2018-11-29T14:20:55.999Z,3.07
2018-11-29T14:23:23.469Z,1.13
2018-11-29T14:25:50.882Z,1.80
2018-11-29T14:28:18.474Z,2.03
2018-11-29T14:30:45.977Z,1.90
2018-11-29T14:33:13.389Z,1.83
2018-11-29T14:35:40.852Z,1.50
2018-11-29T14:38:08.286Z,2.17
2018-11-29T14:40:36.003Z,1.53
2018-11-29T14:43:03.470Z,1.50
2018-11-29T14:45:31.042Z,1.47
2018-11-29T14:47:58.482Z,1.83
2018-11-29T14:50:30.736Z,1.50
2018-11-29T14:52:58.172Z,1.23
2018-11-29T14:55:25.638Z,1.73
2018-11-29T14:57:53.394Z,1.00
2018-11-29T15:00:20.906Z,1.37
2018-11-29T15:02:49.060Z,2.10
2018-11-29T15:05:21.197Z,1.77
2018-11-29T15:07:48.695Z,2.00
2018-11-29T15:10:16.166Z,1.20
2018-11-29T15:12:43.579Z,1.50
2018-11-29T15:15:11.431Z,1.57
2018-11-29T15:17:39.288Z,1.50
2018-11-29T15:20:09.549Z,1.50
2018-11-29T15:22:36.994Z,1.37
2018-11-29T15:25:04.808Z,2.43
2018-11-29T15:27:32.241Z,1.63
2018-11-29T15:29:59.723Z,1.07
2018-11-29T15:32:27.139Z,1.53
2018-11-29T15:34:54.631Z,1.47
2018-11-29T15:37:22.111Z,2.00
2018-11-29T15:39:49.592Z,2.77
2018-11-29T15:42:17.098Z,1.17
2018-11-29T15:44:44.525Z,1.30
2018-11-29T15:47:11.974Z,1.70
2018-11-29T15:49:39.431Z,1.30
2018-11-29T15:52:06.859Z,1.77
2018-11-29T15:54:34.267Z,3.10
2018-11-29T15:57:01.733Z,2.47
2018-11-29T15:59:29.262Z,2.07
2018-11-29T16:01:56.691Z,1.70
2018-11-29T16:04:24.143Z,1.80
2018-11-29T16:06:51.613Z,1.70
2018-11-29T16:09:19.044Z,1.30
2018-11-29T16:11:46.481Z,2.10
2018-11-29T16:14:13.956Z,1.80
2018-11-29T16:16:41.399Z,2.40
2018-11-29T16:19:08.860Z,2.07
2018-11-29T16:21:36.326Z,2.37
2018-11-29T16:24:03.766Z,1.63
2018-11-29T16:26:32.869Z,1.67
2018-11-29T16:29:00.349Z,2.10
2018-11-29T16:31:27.931Z,2.43
2018-11-29T16:33:55.414Z,2.10
2018-11-29T16:36:22.863Z,1.57
2018-11-29T16:38:50.302Z,1.83
2018-11-29T16:41:17.863Z,1.90
2018-11-29T16:43:45.287Z,2.63
2018-11-29T16:46:12.859Z,1.90
2018-11-29T16:48:40.372Z,1.77
2018-11-29T16:51:07.844Z,2.20
2018-11-29T16:53:35.292Z,2.00
2018-11-29T16:56:02.736Z,2.77
2018-11-29T16:58:30.229Z,2.90
2018-11-29T17:00:57.765Z,2.00
2018-11-29T17:03:25.298Z,2.53
2018-11-29T17:05:52.763Z,1.80
2018-11-29T17:08:21.394Z,2.37
2018-11-29T17:10:47.751Z,2.10
2018-11-29T17:13:15.771Z,1.97
2018-11-29T17:15:43.268Z,2.23
2018-11-29T17:18:10.738Z,1.90
2018-11-29T17:20:38.206Z,2.00
2018-11-29T17:23:06.402Z,2.27
2018-11-29T17:25:33.871Z,2.13
2018-11-29T17:28:01.323Z,2.07
2018-11-29T17:30:28.895Z,2.80
2018-11-29T17:32:56.792Z,2.40
2018-11-29T17:35:24.256Z,2.70
2018-11-29T17:37:52.144Z,1.53
2018-11-29T17:40:19.917Z,2.00
2018-11-29T17:42:47.385Z,2.27
2018-11-29T17:45:16.422Z,2.30
2018-11-29T17:47:44.020Z,2.50
2018-11-29T17:50:12.479Z,1.90
2018-11-29T17:52:39.967Z,2.43
2018-11-29T17:55:07.474Z,2.10
2018-11-29T17:57:34.875Z,2.23
2018-11-29T18:00:02.567Z,2.50
2018-11-29T18:02:30.110Z,2.10
2018-11-29T18:04:57.578Z,2.70
2018-11-29T18:07:25.023Z,2.30
2018-11-29T18:09:52.540Z,2.97
2018-11-29T18:12:21.085Z,2.90
2018-11-29T18:14:48.521Z,1.70
2018-11-29T18:17:15.947Z,2.37
2018-11-29T18:19:43.403Z,1.80
2018-11-29T18:22:10.950Z,2.87
2018-11-29T18:24:38.385Z,2.17
2018-11-29T18:27:05.854Z,3.10
2018-11-29T18:29:33.333Z,2.33
2018-11-29T18:32:00.759Z,2.30
2018-11-29T18:34:28.281Z,2.50
2018-11-29T18:36:55.734Z,2.10
2018-11-29T18:39:23.184Z,2.13
2018-11-29T18:41:50.671Z,2.27
2018-11-29T18:44:18.124Z,2.57
2018-11-29T18:46:45.585Z,2.30
2018-11-29T18:49:13.025Z,2.30
2018-11-29T18:51:40.772Z,2.37
2018-11-29T18:54:08.223Z,2.27
2018-11-29T18:56:35.649Z,2.27
2018-11-29T18:59:03.141Z,2.30
2018-11-29T19:01:30.553Z,2.37
2018-11-29T19:03:58.014Z,2.73
2018-11-29T19:06:32.640Z,2.43
2018-11-29T19:09:00.048Z,2.73
2018-11-29T19:11:27.470Z,2.63
2018-11-29T19:13:54.973Z,2.87
2018-11-29T19:16:22.436Z,1.77
2018-11-29T19:18:49.994Z,2.90
2018-11-29T19:21:17.378Z,2.10
2018-11-29T19:23:44.844Z,2.33
2018-11-29T19:26:12.362Z,2.63
2018-11-29T19:28:39.815Z,1.97
2018-11-29T19:31:07.254Z,2.77
2018-11-29T19:33:34.724Z,2.40
2018-11-29T19:36:02.223Z,2.80
2018-11-29T19:38:29.847Z,2.50
2018-11-29T19:40:57.316Z,2.80
2018-11-29T19:43:24.781Z,2.70
2018-11-29T19:45:52.242Z,2.57
2018-11-29T19:48:19.744Z,2.77
2018-11-29T19:50:47.287Z,2.10
2018-11-29T19:53:19.287Z,2.13
2018-11-29T19:55:47.034Z,2.40
2018-11-29T19:58:14.486Z,2.30
2018-11-29T20:00:42.186Z,2.10
2018-11-29T20:03:09.610Z,2.93
2018-11-29T20:05:37.042Z,2.17
2018-11-29T20:08:05.369Z,2.50
2018-11-29T20:10:32.794Z,2.30
2018-11-29T20:13:05.504Z,2.30
2018-11-29T20:15:34.030Z,2.27
2018-11-29T20:18:01.507Z,2.37
2018-11-29T20:20:29.056Z,2.27
2018-11-29T20:22:56.605Z,3.07
2018-11-29T20:25:24.566Z,2.50
2018-11-29T20:27:52.051Z,2.73
2018-11-29T20:30:20.032Z,2.60
2018-11-29T20:32:47.914Z,2.37
2018-11-29T20:35:15.698Z,2.47
2018-11-29T20:37:43.194Z,2.33
2018-11-29T20:40:12.184Z,2.37
2018-11-29T20:42:39.625Z,1.73
2018-11-29T20:45:18.465Z,2.43
2018-11-29T20:47:45.970Z,2.33
2018-11-29T20:50:14.831Z,2.17
2018-11-29T20:52:41.725Z,2.27
2018-11-29T20:55:10.950Z,1.90
2018-11-29T20:57:38.441Z,2.70
2018-11-29T21:00:13.899Z,2.87
2018-11-29T21:02:41.538Z,2.07
2018-11-29T21:05:09.795Z,2.53
2018-11-29T21:07:37.315Z,2.37
2018-11-29T21:10:08.259Z,1.97
2018-11-29T21:12:35.713Z,2.33
2018-11-29T21:15:03.317Z,2.53
2018-11-29T21:17:30.755Z,2.30
2018-11-29T21:19:58.256Z,2.63
2018-11-29T21:22:25.702Z,2.13
2018-11-29T21:24:53.136Z,1.57
2018-11-29T21:27:20.606Z,2.50
2018-11-29T21:29:48.348Z,2.30
2018-11-29T21:32:15.804Z,2.63
2018-11-29T21:34:43.307Z,2.30
2018-11-29T21:37:10.806Z,2.27
2018-11-29T21:39:38.223Z,2.53
2018-11-29T21:42:05.678Z,2.10
2018-11-29T21:44:33.208Z,2.63
2018-11-29T21:47:00.683Z,2.63
2018-11-29T21:49:28.174Z,2.03
2018-11-29T21:51:55.991Z,1.77
2018-11-29T21:54:23.501Z,1.43
2018-11-29T21:56:50.984Z,2.03
2018-11-29T21:59:18.677Z,2.30
2018-11-29T22:01:46.171Z,2.77
2018-11-29T22:04:13.711Z,2.13
2018-11-29T22:06:41.150Z,2.70
2018-11-29T22:09:08.602Z,2.30
2018-11-29T22:11:36.026Z,4.00
2018-11-29T22:14:03.513Z,2.07
2018-11-29T22:16:30.985Z,2.53
2018-11-29T22:18:58.422Z,2.33
2018-11-29T22:21:25.865Z,2.20
2018-11-29T22:23:53.292Z,1.67
2018-11-29T22:26:20.795Z,2.13
2018-11-29T22:28:48.228Z,2.23
2018-11-29T22:31:15.664Z,2.87
2018-11-29T22:33:43.172Z,2.30
2018-11-29T22:36:10.728Z,2.50
2018-11-29T22:38:38.141Z,3.20
2018-11-29T22:41:05.584Z,2.40
2018-11-29T22:43:33.118Z,2.10
2018-11-29T22:46:01.086Z,2.10
2018-11-29T22:48:28.630Z,1.60
2018-11-29T22:50:56.074Z,2.20
2018-11-29T22:53:23.694Z,2.97
2018-11-29T22:55:51.181Z,2.67
2018-11-29T22:58:18.673Z,2.50
2018-11-29T23:00:49.068Z,2.00
2018-11-29T23:03:16.571Z,2.00
2018-11-29T23:05:44.018Z,1.87
2018-11-29T23:08:11.468Z,2.30
2018-11-29T23:10:38.947Z,2.23
2018-11-29T23:13:06.534Z,2.63
2018-11-29T23:15:34.003Z,2.47
2018-11-29T23:18:01.441Z,1.70
2018-11-29T23:20:29.115Z,1.87
2018-11-29T23:22:56.542Z,2.80
2018-11-29T23:25:23.985Z,2.27
2018-11-29T23:27:51.593Z,2.40
2018-11-29T23:30:19.043Z,2.13
2018-11-29T23:32:46.521Z,1.80
2018-11-29T23:35:14.333Z,2.13
2018-11-29T23:37:41.811Z,2.63
2018-11-29T23:40:11.666Z,2.67
2018-11-29T23:42:39.130Z,2.00
2018-11-29T23:45:07.403Z,1.47
2018-11-29T23:47:34.858Z,1.83
2018-11-29T23:50:02.537Z,1.70
2018-11-29T23:52:30.140Z,1.57
2018-11-29T23:54:57.610Z,1.27
2018-11-29T23:57:25.065Z,2.37
2018-11-29T23:59:52.511Z,2.20
